createdAt,value
2022-09-05T00:00:19.370Z,5.47
2022-09-05T00:03:10.596Z,5.28
2022-09-05T00:06:09.159Z,6.00
2022-09-05T00:08:57.224Z,5.93
2022-09-05T00:11:40.626Z,4.90
2022-09-05T00:15:16.648Z,5.88
2022-09-05T00:19:25.696Z,6.45
2022-09-05T00:24:18.925Z,4.47
2022-09-05T00:24:26.412Z,4.72
2022-09-05T00:27:10.338Z,5.15
2022-09-05T00:31:05.737Z,4.18
2022-09-05T00:32:48.534Z,5.05
2022-09-05T00:35:39.567Z,4.82
2022-09-05T00:40:51.379Z,5.72
2022-09-05T00:43:30.921Z,6.20
2022-09-05T00:46:10.438Z,4.65
2022-09-05T00:49:10.004Z,5.47
2022-09-05T00:51:43.986Z,3.55
2022-09-05T00:55:06.329Z,4.82
2022-09-05T00:57:48.667Z,5.60
2022-09-05T01:00:22.805Z,4.63
2022-09-05T01:03:28.369Z,5.20
2022-09-05T01:06:16.348Z,5.28
2022-09-05T01:09:13.155Z,5.18
2022-09-05T01:12:10.118Z,5.45
2022-09-05T01:14:50.557Z,5.60
2022-09-05T01:17:38.690Z,5.38
2022-09-05T01:20:38.449Z,4.38
2022-09-05T01:23:29.301Z,5.05
2022-09-05T01:26:05.915Z,5.43
2022-09-05T01:29:19.366Z,4.63
2022-09-05T01:32:02.135Z,4.65
2022-09-05T01:34:37.846Z,5.10
2022-09-05T01:37:43.132Z,6.40
2022-09-05T01:40:19.558Z,5.05
2022-09-05T01:43:05.358Z,5.60
2022-09-05T01:45:43.992Z,4.72
2022-09-05T01:48:44.498Z,4.03
2022-09-05T01:51:31.514Z,5.22
2022-09-05T01:54:14.798Z,4.93
2022-09-05T01:57:07.007Z,4.93
2022-09-05T01:59:40.755Z,4.78
2022-09-05T02:02:57.408Z,4.78
2022-09-05T02:06:10.322Z,5.10
2022-09-05T02:08:49.720Z,4.40
2022-09-05T02:11:35.382Z,5.50
2022-09-05T02:14:34.040Z,4.18
2022-09-05T02:17:27.377Z,3.47
2022-09-05T02:20:31.491Z,4.78
2022-09-05T02:23:40.708Z,3.55
2022-09-05T02:26:29.663Z,5.15
2022-09-05T02:29:01.321Z,4.88
2022-09-05T02:31:39.402Z,3.92
2022-09-05T02:34:17.477Z,4.95
2022-09-05T02:37:00.929Z,4.47
2022-09-05T02:45:05.938Z,4.30
2022-09-05T02:45:20.775Z,6.28
2022-09-05T02:45:59.479Z,6.40
2022-09-05T02:48:34.925Z,4.22
2022-09-05T02:57:07.783Z,4.93
2022-09-05T02:57:39.223Z,4.80
2022-09-05T02:58:07.696Z,4.70
2022-09-05T03:00:44.148Z,4.47
2022-09-05T03:03:39.346Z,4.70
2022-09-05T03:06:35.079Z,4.88
2022-09-05T03:09:34.959Z,5.32
2022-09-05T03:12:28.244Z,4.60
2022-09-05T03:15:35.120Z,5.88
2022-09-05T03:19:04.410Z,5.63
2022-09-05T03:21:47.194Z,4.32
2022-09-05T03:24:25.629Z,5.05
2022-09-05T03:30:06.277Z,6.20
2022-09-05T03:32:48.859Z,4.95
2022-09-05T03:35:53.193Z,4.80
2022-09-05T03:38:53.720Z,5.25
2022-09-05T03:41:47.346Z,5.70
2022-09-05T03:44:34.006Z,5.28
2022-09-05T03:47:12.744Z,6.28
2022-09-05T03:55:12.164Z,5.85
2022-09-05T03:57:13.709Z,5.60
2022-09-05T03:57:27.638Z,5.45
2022-09-05T03:58:57.740Z,4.75
2022-09-05T04:05:45.380Z,5.35
2022-09-05T04:08:10.191Z,5.18
2022-09-05T04:08:31.745Z,5.63
2022-09-05T04:10:53.083Z,7.38
2022-09-05T04:13:19.949Z,5.15
2022-09-05T04:16:13.848Z,5.47
2022-09-05T04:18:49.093Z,6.10
2022-09-05T04:21:19.152Z,5.75
2022-09-05T04:24:17.866Z,4.93
2022-09-05T04:26:52.877Z,5.65
2022-09-05T04:29:25.437Z,5.93
2022-09-05T04:32:27.961Z,6.18
2022-09-05T04:35:10.110Z,5.10
2022-09-05T04:37:49.131Z,6.45
2022-09-05T04:40:34.316Z,5.68
2022-09-05T04:43:26.013Z,6.07
2022-09-05T04:45:53.511Z,5.45
2022-09-05T04:48:27.653Z,5.28
2022-09-05T04:51:12.806Z,5.43
2022-09-05T04:54:06.271Z,5.75
2022-09-05T04:56:40.454Z,7.30
2022-09-05T05:05:23.661Z,5.75
2022-09-05T05:06:18.349Z,5.82
2022-09-05T05:06:18.707Z,6.53
2022-09-05T05:08:42.972Z,5.93
2022-09-05T05:16:00.316Z,5.85
2022-09-05T05:18:08.633Z,7.45
2022-09-05T05:18:13.759Z,7.00
2022-09-05T05:20:42.148Z,6.32
2022-09-05T05:23:14.435Z,5.50
2022-09-05T05:25:48.698Z,7.05
2022-09-05T05:28:38.965Z,5.82
2022-09-05T05:31:13.857Z,6.22
2022-09-05T05:33:44.331Z,7.85
2022-09-05T05:36:25.517Z,6.78
2022-09-05T05:38:54.924Z,7.55
2022-09-05T05:41:52.827Z,7.28
2022-09-05T05:44:30.508Z,6.05
2022-09-05T05:47:05.095Z,7.43
2022-09-05T05:49:45.987Z,7.22
2022-09-05T05:52:31.113Z,7.57
2022-09-05T05:55:51.357Z,6.43
2022-09-05T05:58:56.516Z,5.60
2022-09-05T06:01:37.988Z,5.60
2022-09-05T06:04:45.132Z,9.07
2022-09-05T06:09:40.780Z,7.70
2022-09-05T06:14:52.139Z,6.35
2022-09-05T06:15:01.051Z,8.10
2022-09-05T06:17:28.429Z,7.47
2022-09-05T06:22:04.681Z,10.02
2022-09-05T06:23:46.355Z,8.25
2022-09-05T06:26:49.281Z,9.70
2022-09-05T06:29:38.205Z,7.35
2022-09-05T06:32:08.442Z,8.32
2022-09-05T06:35:06.734Z,9.05
2022-09-05T06:37:38.958Z,11.23
2022-09-05T06:40:41.853Z,9.57
2022-09-05T06:43:31.367Z,9.65
2022-09-05T06:46:54.602Z,11.80
2022-09-05T06:49:45.906Z,9.50
2022-09-05T06:55:04.651Z,10.98
2022-09-05T06:57:43.885Z,7.22
2022-09-05T07:00:50.290Z,9.15
2022-09-05T07:03:24.016Z,9.45
2022-09-05T07:06:06.865Z,7.85
2022-09-05T07:08:44.396Z,11.70
2022-09-05T07:11:32.763Z,10.10
2022-09-05T07:14:22.945Z,8.60
2022-09-05T07:17:05.711Z,9.35
2022-09-05T07:19:55.986Z,10.00
2022-09-05T07:24:05.648Z,8.85
2022-09-05T07:26:04.370Z,11.98
2022-09-05T07:28:32.209Z,9.00
2022-09-05T07:31:07.321Z,9.98
2022-09-05T07:33:37.383Z,11.55
2022-09-05T07:36:16.661Z,9.57
2022-09-05T07:39:02.388Z,7.70
2022-09-05T07:41:39.559Z,9.60
2022-09-05T07:44:15.192Z,9.43
2022-09-05T07:46:45.975Z,9.38
2022-09-05T07:49:20.766Z,7.40
2022-09-05T07:56:55.563Z,11.65
2022-09-05T07:57:10.643Z,11.88
2022-09-05T07:57:51.189Z,9.77
2022-09-05T08:00:26.745Z,8.00
2022-09-05T08:02:59.061Z,8.85
2022-09-05T08:05:34.495Z,10.77
2022-09-05T08:08:06.579Z,7.43
2022-09-05T08:11:22.163Z,8.98
2022-09-05T08:13:46.413Z,7.35
2022-09-05T08:16:20.650Z,6.97
2022-09-05T08:19:06.506Z,7.63
2022-09-05T08:21:43.699Z,8.55
2022-09-05T08:24:25.727Z,5.95
2022-09-05T08:27:01.792Z,6.60
2022-09-05T08:29:38.967Z,5.97
2022-09-05T08:32:10.419Z,7.72
2022-09-05T08:34:47.389Z,5.88
2022-09-05T08:37:22.751Z,9.98
2022-09-05T08:39:56.844Z,6.50
2022-09-05T08:45:59.898Z,6.43
2022-09-05T08:46:40.602Z,8.63
2022-09-05T08:49:39.469Z,8.00
2022-09-05T08:52:32.097Z,7.10
2022-09-05T08:55:08.055Z,6.82
2022-09-05T08:58:02.897Z,6.65
2022-09-05T09:01:14.498Z,7.63
2022-09-05T09:03:52.055Z,5.28
2022-09-05T09:06:31.631Z,5.55
2022-09-05T09:09:13.182Z,7.15
2022-09-05T09:12:03.655Z,4.82
2022-09-05T09:14:59.350Z,6.70
2022-09-05T09:17:45.947Z,5.70
2022-09-05T09:20:21.595Z,6.65
2022-09-05T09:23:09.193Z,6.25
2022-09-05T09:26:17.870Z,6.57
2022-09-05T09:29:02.222Z,5.15
2022-09-05T09:31:50.306Z,5.07
2022-09-05T09:34:26.313Z,4.32
2022-09-05T09:37:46.626Z,4.68
2022-09-05T09:40:14.961Z,6.32
2022-09-05T09:42:53.843Z,6.35
2022-09-05T09:45:58.172Z,5.60
2022-09-05T09:49:02.774Z,6.65
2022-09-05T09:51:38.423Z,4.95
2022-09-05T09:54:29.754Z,4.05
2022-09-05T09:57:24.087Z,4.68
2022-09-05T10:00:11.883Z,3.67
2022-09-05T10:07:21.294Z,3.65
2022-09-05T10:10:45.620Z,6.30
2022-09-05T10:10:51.121Z,4.00
2022-09-05T10:12:15.068Z,3.60
2022-09-05T10:14:53.722Z,3.03
2022-09-05T10:17:28.661Z,6.65
2022-09-05T10:20:10.495Z,3.55
2022-09-05T10:23:15.453Z,3.47
2022-09-05T10:26:03.958Z,3.70
2022-09-05T10:28:50.073Z,8.77
2022-09-05T10:34:47.535Z,6.28
2022-09-05T10:35:14.946Z,3.17
2022-09-05T10:37:12.029Z,4.07
2022-09-05T10:39:44.934Z,3.83
2022-09-05T10:42:18.716Z,4.30
2022-09-05T10:44:57.748Z,4.28
2022-09-05T10:47:48.753Z,3.85
2022-09-05T10:50:39.330Z,4.97
2022-09-05T10:53:13.227Z,5.45
2022-09-05T10:55:52.389Z,4.85
2022-09-05T11:00:58.087Z,4.47
2022-09-05T11:02:27.746Z,4.38
2022-09-05T11:05:27.544Z,3.00
2022-09-05T11:08:16.054Z,5.40
2022-09-05T11:10:50.852Z,2.80
2022-09-05T11:13:46.102Z,4.35
2022-09-05T11:16:50.521Z,4.22
2022-09-05T11:19:23.151Z,5.82
2022-09-05T11:22:23.041Z,3.08
2022-09-05T11:24:59.898Z,4.65
2022-09-05T11:27:34.422Z,4.00
2022-09-05T11:30:30.022Z,3.05
2022-09-05T11:39:50.565Z,4.07
2022-09-05T11:40:00.116Z,4.68
2022-09-05T11:40:30.086Z,2.97
2022-09-05T11:43:13.977Z,4.20
2022-09-05T11:46:20.526Z,3.25
2022-09-05T11:49:17.071Z,4.78
2022-09-05T11:52:11.665Z,2.75
2022-09-05T11:54:41.372Z,3.78
2022-09-05T11:57:42.879Z,3.60
2022-09-05T12:00:32.541Z,3.67
2022-09-05T12:03:59.091Z,4.47
2022-09-05T12:06:29.973Z,3.03
2022-09-05T12:09:26.824Z,2.33
2022-09-05T12:12:18.674Z,3.03
2022-09-05T12:15:33.939Z,2.45
2022-09-05T12:18:38.203Z,3.88
2022-09-05T12:21:38.832Z,3.38
2022-09-05T12:25:17.248Z,3.92
2022-09-05T12:27:41.466Z,4.35
2022-09-05T12:30:04.755Z,3.33
2022-09-05T12:35:33.871Z,5.03
2022-09-05T12:36:13.111Z,3.22
2022-09-05T12:41:34.144Z,3.47
2022-09-05T12:42:11.464Z,5.10
2022-09-05T12:45:16.633Z,2.38
2022-09-05T12:48:19.519Z,2.70
2022-09-05T12:50:58.687Z,2.72
2022-09-05T12:53:35.105Z,2.33
2022-09-05T12:56:55.549Z,2.55
2022-09-05T13:03:02.751Z,2.67
2022-09-05T13:03:03.931Z,2.80
2022-09-05T13:05:01.749Z,3.42
2022-09-05T13:14:46.964Z,2.45
2022-09-05T13:14:55.595Z,3.28
2022-09-05T13:16:03.402Z,2.67
2022-09-05T13:18:39.092Z,2.42
2022-09-05T13:21:27.097Z,4.47
2022-09-05T13:24:12.327Z,3.28
2022-09-05T13:26:46.283Z,3.85
2022-09-05T13:29:23.136Z,2.63
2022-09-05T13:35:50.528Z,3.78
2022-09-05T13:38:03.040Z,3.33
2022-09-05T13:38:10.166Z,3.55
2022-09-05T13:40:48.183Z,4.22
2022-09-05T13:43:29.564Z,3.42
2022-09-05T13:46:03.459Z,2.92
2022-09-05T13:51:45.387Z,2.50
2022-09-05T13:54:18.479Z,3.72
2022-09-05T13:57:07.167Z,3.17
2022-09-05T13:59:40.881Z,3.60
2022-09-05T14:03:30.124Z,1.92
2022-09-05T14:05:46.105Z,2.55
2022-09-05T14:08:46.070Z,2.20
2022-09-05T14:11:38.163Z,2.88
2022-09-05T14:20:26.465Z,2.85
2022-09-05T14:22:59.142Z,2.88
2022-09-05T14:25:36.339Z,2.00
2022-09-05T14:28:05.499Z,2.88
2022-09-05T14:32:27.599Z,2.85
2022-09-05T14:37:44.165Z,2.60
2022-09-05T14:37:50.483Z,2.85
2022-09-05T14:39:56.815Z,2.30
2022-09-05T14:42:29.590Z,3.38
2022-09-05T14:45:15.534Z,1.92
2022-09-05T14:47:47.506Z,3.55
2022-09-05T14:50:39.472Z,3.58
2022-09-05T14:56:50.215Z,3.67
2022-09-05T15:02:49.360Z,3.30
2022-09-05T15:02:53.100Z,4.25
2022-09-05T15:05:40.771Z,2.70
2022-09-05T15:11:24.802Z,2.28
2022-09-05T15:12:20.314Z,2.13
2022-09-05T15:14:04.879Z,1.80
2022-09-05T15:16:38.390Z,2.42
2022-09-05T15:19:08.565Z,4.20
2022-09-05T15:21:38.195Z,2.90
2022-09-05T15:24:23.764Z,4.78
2022-09-05T15:26:59.531Z,2.72
2022-09-05T15:29:34.006Z,4.95
2022-09-05T15:32:37.458Z,2.97
2022-09-05T15:35:05.886Z,2.60
2022-09-05T15:37:40.910Z,2.78
2022-09-05T15:40:22.510Z,2.50
2022-09-05T15:42:53.239Z,2.40
2022-09-05T15:45:35.817Z,2.97
2022-09-05T15:48:16.227Z,2.42
2022-09-05T15:50:50.101Z,3.03
2022-09-05T15:53:30.797Z,2.78
2022-09-05T15:56:09.777Z,3.85
2022-09-05T15:58:53.630Z,1.88
2022-09-05T16:01:59.028Z,2.75
2022-09-05T16:09:08.434Z,3.35
2022-09-05T16:10:36.345Z,1.50
2022-09-05T16:10:36.594Z,2.05
2022-09-05T16:13:14.081Z,2.53
2022-09-05T16:20:15.024Z,3.75
2022-09-05T16:23:34.266Z,3.42
2022-09-05T16:23:35.248Z,3.83
2022-09-05T16:24:58.557Z,6.90
2022-09-05T16:30:15.423Z,3.53
2022-09-05T16:32:51.561Z,3.85
2022-09-05T16:35:18.987Z,5.38
2022-09-05T16:38:02.263Z,2.85
2022-09-05T16:40:33.919Z,2.30
2022-09-05T16:43:18.151Z,4.30
2022-09-05T16:46:08.264Z,3.35
2022-09-05T16:49:02.808Z,3.58
2022-09-05T16:51:45.884Z,3.53
2022-09-05T16:54:22.606Z,5.28
2022-09-05T16:56:54.847Z,3.22
2022-09-05T16:59:30.711Z,2.50
2022-09-05T17:02:28.481Z,4.95
2022-09-05T17:05:07.354Z,4.55
2022-09-05T17:08:02.009Z,4.15
2022-09-05T17:10:34.640Z,3.92
2022-09-05T17:13:03.592Z,4.38
2022-09-05T17:15:36.007Z,4.45
2022-09-05T17:18:22.386Z,3.25
2022-09-05T17:20:55.938Z,1.80
2022-09-05T17:29:20.997Z,4.63
2022-09-05T17:29:31.918Z,3.58
2022-09-05T17:32:59.520Z,2.85
2022-09-05T17:35:32.455Z,5.18
2022-09-05T17:38:11.554Z,5.32
2022-09-05T17:40:57.239Z,3.72
2022-09-05T17:43:32.044Z,4.97
2022-09-05T17:46:20.227Z,3.65
2022-09-05T17:49:06.067Z,4.03
2022-09-05T17:51:34.368Z,5.18
2022-09-05T17:54:04.977Z,4.20
2022-09-05T17:56:40.396Z,5.40
2022-09-05T17:59:24.948Z,3.53
2022-09-05T18:02:03.715Z,4.45
2022-09-05T18:04:49.820Z,4.85
2022-09-05T18:07:25.595Z,4.88
2022-09-05T18:10:14.649Z,4.60
2022-09-05T18:15:35.943Z,4.72
2022-09-05T18:18:05.264Z,4.97
2022-09-05T18:20:44.186Z,6.45
2022-09-05T18:23:16.666Z,5.07
2022-09-05T18:26:16.074Z,4.30
2022-09-05T18:28:48.297Z,5.55
2022-09-05T18:31:42.744Z,4.38
2022-09-05T18:34:13.748Z,3.60
2022-09-05T18:36:57.370Z,4.32
2022-09-05T18:39:24.744Z,5.38
2022-09-05T18:42:14.783Z,3.83
2022-09-05T18:45:01.228Z,5.75
2022-09-05T18:47:51.233Z,6.10
2022-09-05T18:50:32.553Z,4.60
2022-09-05T18:53:09.463Z,3.67
2022-09-05T18:56:14.317Z,5.32
2022-09-05T18:58:32.061Z,6.70
2022-09-05T19:01:36.653Z,4.55
2022-09-05T19:04:08.651Z,3.28
2022-09-05T19:06:45.223Z,5.60
2022-09-05T19:09:21.100Z,5.38
2022-09-05T19:12:33.123Z,4.75
2022-09-05T19:15:15.311Z,5.60
2022-09-05T19:17:47.323Z,5.55
2022-09-05T19:20:32.555Z,4.18
2022-09-05T19:23:09.899Z,6.22
2022-09-05T19:25:45.152Z,7.20
2022-09-05T19:36:48.602Z,6.97
2022-09-05T19:36:50.522Z,5.13
2022-09-05T19:37:06.456Z,4.60
2022-09-05T19:37:23.664Z,6.97
2022-09-05T19:47:28.584Z,4.85
2022-09-05T19:47:35.530Z,5.93
2022-09-05T19:48:25.739Z,6.20
2022-09-05T19:51:17.330Z,6.85
2022-09-05T19:53:54.070Z,6.25
2022-09-05T19:56:45.021Z,4.05
2022-09-05T19:59:24.634Z,5.72
2022-09-05T20:01:53.059Z,5.50
2022-09-05T20:04:20.974Z,5.72
2022-09-05T20:06:49.659Z,7.47
2022-09-05T20:09:24.613Z,6.85
2022-09-05T20:11:57.956Z,5.40
2022-09-05T20:14:32.657Z,5.82
2022-09-05T20:17:17.225Z,5.18
2022-09-05T20:19:44.234Z,6.53
2022-09-05T20:22:49.709Z,7.70
2022-09-05T20:25:41.283Z,5.57
2022-09-05T20:28:10.210Z,4.97
2022-09-05T20:30:56.507Z,5.97
2022-09-05T20:33:42.823Z,4.45
2022-09-05T20:43:07.990Z,4.97
2022-09-05T20:43:31.464Z,6.28
2022-09-05T20:43:35.039Z,5.47
2022-09-05T20:45:14.967Z,5.72
2022-09-05T20:54:16.436Z,7.57
2022-09-05T20:54:31.918Z,7.78
2022-09-05T20:57:28.788Z,6.97
2022-09-05T21:00:21.924Z,7.63
2022-09-05T21:03:00.843Z,7.53
2022-09-05T21:05:34.126Z,6.80
2022-09-05T21:08:25.091Z,7.00
2022-09-05T21:10:55.668Z,8.32
2022-09-05T21:13:34.631Z,7.40
2022-09-05T21:16:01.955Z,8.45
2022-09-05T21:18:33.286Z,6.25
2022-09-05T21:24:17.451Z,5.57
2022-09-05T21:26:46.116Z,7.75
2022-09-05T21:29:12.804Z,7.30
2022-09-05T21:31:45.688Z,6.75
2022-09-05T21:34:25.826Z,7.57
2022-09-05T21:37:06.883Z,8.48
2022-09-05T21:39:59.096Z,6.80
2022-09-05T21:47:35.169Z,8.18
2022-09-05T21:47:37.940Z,7.63
2022-09-05T21:48:07.385Z,6.82
2022-09-05T21:50:48.877Z,6.90
2022-09-05T21:56:45.275Z,7.47
2022-09-05T21:59:18.104Z,5.80
2022-09-05T21:59:30.624Z,7.85
2022-09-05T22:01:53.157Z,7.30
2022-09-05T22:04:21.656Z,7.00
2022-09-05T22:06:48.961Z,6.40
2022-09-05T22:09:17.837Z,6.70
2022-09-05T22:11:50.145Z,5.95
2022-09-05T22:14:22.043Z,7.85
2022-09-05T22:16:51.800Z,6.78
2022-09-05T22:19:37.620Z,7.38
2022-09-05T22:22:15.668Z,7.18
2022-09-05T22:25:01.938Z,7.25
2022-09-05T22:27:31.646Z,6.28
2022-09-05T22:29:58.786Z,6.05
2022-09-05T22:32:34.139Z,5.82
2022-09-05T22:35:27.121Z,6.13
2022-09-05T22:37:53.481Z,8.23
2022-09-05T22:40:26.181Z,5.82
2022-09-05T22:43:04.267Z,7.65
2022-09-05T22:45:33.314Z,5.90
2022-09-05T22:48:14.808Z,7.10
2022-09-05T22:50:42.392Z,7.32
2022-09-05T22:53:10.396Z,6.72
2022-09-05T22:55:39.439Z,7.20
2022-09-05T22:58:07.482Z,7.25
2022-09-05T23:00:34.722Z,8.98
2022-09-05T23:03:04.016Z,8.15
2022-09-05T23:05:32.687Z,7.57
2022-09-05T23:08:00.710Z,7.47
2022-09-05T23:10:28.673Z,6.90
2022-09-05T23:12:55.952Z,6.55
2022-09-05T23:15:22.818Z,7.15
2022-09-05T23:17:57.330Z,6.05
2022-09-05T23:20:25.885Z,11.55
2022-09-05T23:22:52.558Z,5.80
2022-09-05T23:25:19.932Z,5.70
2022-09-05T23:27:46.910Z,7.10
2022-09-05T23:30:14.101Z,9.20
2022-09-05T23:32:48.730Z,6.07
2022-09-05T23:35:16.950Z,6.60
2022-09-05T23:37:45.192Z,5.28
2022-09-05T23:40:17.757Z,7.03
2022-09-05T23:42:52.128Z,6.32
2022-09-05T23:45:19.593Z,5.63
2022-09-05T23:47:46.384Z,5.70
2022-09-05T23:50:13.812Z,6.35
2022-09-05T23:52:42.392Z,5.93
2022-09-05T23:55:13.338Z,5.40
2022-09-05T23:57:40.482Z,6.35
